Time;durP1;ratioP1;P1;durP2;ratioP2;P2;SDS_P1;SDS_P2;PMS_P1;PMS_P2;Temp;Humidity;BMP_temperature;BMP_pressure;BME280_temperature;BME280_humidity;BME280_pressure;Samples;Min_cycle;Max_cycle;Signal;HPM_P1;HPM_P2
2022/06/10 00:00:08;;;;;;;9.50;1.60;;;13.70;99.90;;;;;;4253186;27;20050;-83
2022/06/10 00:02:09;;;;;;;7.00;1.65;;;13.70;99.90;;;;;;4232628;28;20040;-84
2022/06/10 00:04:13;;;;;;;8.50;1.63;;;13.60;99.90;;;;;;4232995;28;20047;-84
2022/06/10 00:06:14;;;;;;;8.57;2.97;;;13.60;99.90;;;;;;4250656;27;20043;-84
2022/06/10 00:08:21;;;;;;;12.02;2.40;;;13.60;99.90;;;;;;4250411;27;20039;-83
2022/06/10 00:10:25;;;;;;;6.68;1.90;;;13.60;99.90;;;;;;4250753;27;20546;-84
2022/06/10 00:12:27;;;;;;;5.30;1.75;;;13.50;99.90;;;;;;4232655;28;20075;-83
2022/06/10 00:14:28;;;;;;;4.97;1.60;;;13.50;99.90;;;;;;4250955;27;20509;-84
2022/06/10 00:16:28;;;;;;;7.40;1.40;;;13.50;99.90;;;;;;4250796;27;20043;-84
2022/06/10 00:18:33;;;;;;;9.88;1.42;;;13.50;99.90;;;;;;4250038;27;20043;-83
2022/06/10 00:20:34;;;;;;;7.47;1.80;;;13.40;99.90;;;;;;4250619;27;20100;-84
2022/06/10 00:22:35;;;;;;;5.65;1.77;;;13.40;99.90;;;;;;4250447;27;20055;-84
2022/06/10 00:24:36;;;;;;;11.63;1.33;;;13.40;99.90;;;;;;4215841;28;20601;-84
2022/06/10 00:26:36;;;;;;;15.57;3.30;;;13.40;99.90;;;;;;4250591;27;20523;-84
2022/06/10 00:28:40;;;;;;;8.75;1.60;;;13.40;99.90;;;;;;4250872;27;20407;-84
2022/06/10 00:30:41;;;;;;;7.50;1.65;;;13.30;99.90;;;;;;4250904;27;20047;-84
2022/06/10 00:32:42;;;;;;;6.38;1.92;;;13.30;99.90;;;;;;4215061;28;20043;-84
2022/06/10 00:34:43;;;;;;;9.82;1.73;;;13.30;99.90;;;;;;4250746;27;20046;-84
2022/06/10 00:36:44;;;;;;;5.35;1.70;;;13.30;99.90;;;;;;4250993;27;20035;-84
2022/06/10 00:38:47;;;;;;;14.35;2.65;;;13.30;99.90;;;;;;4250892;27;20050;-84
2022/06/10 00:40:51;;;;;;;8.48;1.88;;;13.30;99.90;;;;;;4250416;27;20047;-84
2022/06/10 00:42:54;;;;;;;7.68;1.70;;;13.30;99.90;;;;;;4250261;27;20086;-84
2022/06/10 00:44:55;;;;;;;5.43;1.75;;;13.30;99.90;;;;;;4232726;28;20056;-84
2022/06/10 00:46:56;;;;;;;8.43;1.70;;;13.30;99.90;;;;;;4251270;27;20071;-84
2022/06/10 00:48:57;;;;;;;8.30;1.40;;;13.20;99.90;;;;;;4233548;28;20047;-84
2022/06/10 00:51:03;;;;;;;5.25;1.30;;;13.20;99.90;;;;;;4216782;28;20050;-84
2022/06/10 00:53:05;;;;;;;7.70;1.85;;;13.20;99.90;;;;;;4232831;28;20047;-84
2022/06/10 00:55:08;;;;;;;4.13;1.38;;;13.20;99.90;;;;;;4251230;27;20085;-84
2022/06/10 00:57:17;;;;;;;10.60;2.08;;;13.20;99.90;;;;;;4233435;28;20104;-84
2022/06/10 00:59:25;;;;;;;4.35;1.38;;;13.20;99.90;;;;;;4233683;28;20084;-83
2022/06/10 01:01:28;;;;;;;8.18;2.08;;;13.20;99.90;;;;;;4251852;27;20540;-84
2022/06/10 01:03:30;;;;;;;9.23;1.40;;;13.20;99.90;;;;;;4233362;28;20122;-83
2022/06/10 01:05:31;;;;;;;8.55;1.33;;;13.30;99.90;;;;;;4233248;28;20054;-83
2022/06/10 01:07:39;;;;;;;4.35;1.65;;;13.30;99.90;;;;;;4232671;28;20576;-83
2022/06/10 01:09:43;;;;;;;5.75;1.20;;;13.30;99.90;;;;;;4249868;27;20483;-84
2022/06/10 01:12:14;;;;;;;3.60;1.48;;;13.30;99.90;;;;;;4231633;28;20047;-84
2022/06/10 01:14:34;;;;;;;4.38;1.20;;;13.40;99.90;;;;;;4233502;28;20057;-83
2022/06/10 01:16:54;;;;;;;7.32;1.40;;;13.30;99.90;;;;;;4231765;28;20039;-83
2022/06/10 01:19:16;;;;;;;7.40;2.08;;;13.30;99.90;;;;;;4237822;27;20039;-84
2022/06/10 01:21:31;;;;;;;7.80;1.77;;;13.30;99.90;;;;;;4214037;28;20501;-84
2022/06/10 01:23:41;;;;;;;9.27;1.52;;;13.40;99.90;;;;;;4232604;28;20330;-83
2022/06/10 01:25:44;;;;;;;7.95;1.60;;;13.40;99.90;;;;;;4231575;28;20039;-83
2022/06/10 01:28:07;;;;;;;5.25;1.45;;;13.40;99.90;;;;;;4233222;28;20047;-83
2022/06/10 01:31:02;;;;;;;8.25;1.67;;;13.40;99.90;;;;;;4232143;28;20039;-84
2022/06/10 01:33:18;;;;;;;6.97;2.22;;;13.30;99.90;;;;;;4164223;28;20041;-84
2022/06/10 01:35:25;;;;;;;7.70;1.58;;;13.40;99.90;;;;;;4220120;28;20055;-84
2022/06/10 01:37:38;;;;;;;4.65;1.92;;;13.40;99.90;;;;;;4232628;28;20527;-84
2022/06/10 01:39:51;;;;;;;7.68;1.30;;;13.30;99.90;;;;;;4232759;28;20128;-84
2022/06/10 01:42:06;;;;;;;6.53;2.00;;;13.40;99.90;;;;;;4231115;28;20690;-84
2022/06/10 01:44:34;;;;;;;7.20;1.75;;;13.40;99.90;;;;;;4213987;28;20081;-84
2022/06/10 01:46:40;;;;;;;8.07;1.55;;;13.30;99.90;;;;;;4232416;28;20039;-84
2022/06/10 01:48:50;;;;;;;7.18;1.92;;;13.30;99.90;;;;;;4232514;28;20043;-84
2022/06/10 01:51:17;;;;;;;13.18;3.13;;;13.30;99.90;;;;;;4231985;28;20086;-83
2022/06/10 01:53:29;;;;;;;8.30;1.75;;;13.30;99.90;;;;;;4231842;28;20043;-84
2022/06/10 01:56:00;;;;;;;8.50;1.60;;;13.20;99.90;;;;;;4244106;27;20039;-84
2022/06/10 01:58:08;;;;;;;8.18;1.77;;;13.20;99.90;;;;;;4230783;28;20125;-84
2022/06/10 02:00:23;;;;;;;8.60;1.88;;;13.20;99.90;;;;;;4248930;27;20044;-84
2022/06/10 02:02:30;;;;;;;7.38;1.92;;;13.20;99.90;;;;;;4248814;27;20075;-84
2022/06/10 02:04:39;;;;;;;4.63;1.77;;;13.10;99.90;;;;;;4249023;27;20043;-84
2022/06/10 02:06:46;;;;;;;;;;;13.10;99.90;;;;;;4249537;27;20089;-84
2022/06/10 02:09:09;;;;;;;7.15;1.85;;;13.10;99.90;;;;;;4248728;27;19919;-83
2022/06/10 02:11:22;;;;;;;7.35;1.83;;;13.00;99.90;;;;;;4249147;27;20051;-84
2022/06/10 02:13:31;;;;;;;9.25;1.77;;;13.00;99.90;;;;;;4248793;27;20058;-84
2022/06/10 02:15:43;;;;;;;13.13;2.17;;;13.00;99.90;;;;;;4249168;27;20488;-84
2022/06/10 02:17:53;;;;;;;7.80;1.95;;;12.90;99.90;;;;;;4248383;27;20103;-84
2022/06/10 02:19:57;;;;;;;8.43;2.03;;;13.00;99.90;;;;;;4248604;27;20043;-83
2022/06/10 02:22:11;;;;;;;9.20;1.80;;;12.70;99.90;;;;;;4213296;28;20086;-83
2022/06/10 02:24:22;;;;;;;10.48;2.60;;;12.90;99.90;;;;;;4229522;28;20078;-84
2022/06/10 02:26:26;;;;;;;9.85;2.33;;;12.90;99.90;;;;;;4249193;27;20047;-84
2022/06/10 02:28:41;;;;;;;11.13;2.47;;;12.90;99.90;;;;;;4248854;27;20050;-84
2022/06/10 02:30:53;;;;;;;10.95;1.70;;;12.80;99.90;;;;;;4248375;27;20053;-84
2022/06/10 02:32:56;;;;;;;7.82;1.80;;;12.80;99.90;;;;;;4248791;27;20046;-83
2022/06/10 02:34:58;;;;;;;7.07;1.75;;;12.80;99.90;;;;;;4213872;28;20099;-84
2022/06/10 02:37:03;;;;;;;9.45;2.25;;;12.80;99.90;;;;;;4230539;28;20055;-83
2022/06/10 02:39:17;;;;;;;6.18;1.88;;;12.80;99.90;;;;;;4248673;27;20394;-83
2022/06/10 02:41:26;;;;;;;6.50;2.00;;;12.80;99.90;;;;;;4247761;27;20122;-83
2022/06/10 02:43:53;;;;;;;10.55;1.73;;;12.80;99.90;;;;;;4248441;27;20095;-83
2022/06/10 02:46:00;;;;;;;8.70;1.88;;;12.80;99.90;;;;;;4248350;27;20054;-84
2022/06/10 02:48:09;;;;;;;7.22;1.67;;;12.80;99.90;;;;;;4230297;28;20044;-83
2022/06/10 02:50:11;;;;;;;7.50;1.60;;;12.80;99.90;;;;;;4248556;28;20054;-83
2022/06/10 02:52:14;;;;;;;5.80;1.67;;;12.80;99.90;;;;;;4248517;28;20068;-83
2022/06/10 02:54:31;;;;;;;8.10;1.98;;;12.80;99.90;;;;;;4248283;28;20035;-84
2022/06/10 02:56:31;;;;;;;9.60;2.45;;;12.80;99.90;;;;;;4247782;28;20047;-83
2022/06/10 03:01:27;;;;;;;10.98;2.00;;;12.80;99.90;;;;;;4248440;28;20043;-84
2022/06/10 03:04:08;;;;;;;7.18;2.25;;;12.80;99.90;;;;;;4248496;28;20035;-84
2022/06/10 03:06:25;;;;;;;10.95;3.42;;;12.80;99.90;;;;;;4229164;28;20040;-83
2022/06/10 03:08:45;;;;;;;10.55;2.17;;;12.70;99.90;;;;;;4229732;28;20087;-83
2022/06/10 03:11:01;;;;;;;5.85;1.65;;;12.70;99.90;;;;;;4230153;28;20083;-83
2022/06/10 03:13:33;;;;;;;7.20;1.98;;;12.70;99.90;;;;;;4248291;28;20039;-83
2022/06/10 03:15:45;;;;;;;11.98;1.83;;;12.70;99.90;;;;;;4248257;28;20042;-83
2022/06/10 03:18:18;;;;;;;9.82;1.90;;;12.70;99.90;;;;;;4245240;28;20047;-83
2022/06/10 03:20:29;;;;;;;13.57;2.17;;;12.70;99.90;;;;;;4230891;28;20567;-83
2022/06/10 03:22:33;;;;;;;9.18;2.22;;;12.70;99.90;;;;;;4230373;28;20055;-83
2022/06/10 03:24:33;;;;;;;19.15;3.70;;;12.60;99.90;;;;;;4230745;28;20048;-83
2022/06/10 03:26:53;;;;;;;8.88;1.80;;;12.60;99.90;;;;;;4230747;28;20136;-83
2022/06/10 03:29:24;;;;;;;12.93;2.20;;;12.60;99.90;;;;;;4212148;28;20044;-83
2022/06/10 03:31:36;;;;;;;8.68;1.90;;;12.70;99.90;;;;;;4230288;28;20480;-83
2022/06/10 03:33:43;;;;;;;6.10;2.47;;;12.70;99.90;;;;;;4230833;28;20039;-83
2022/06/10 03:35:50;;;;;;;10.00;2.17;;;12.60;99.90;;;;;;4232262;28;20048;-83
2022/06/10 03:37:51;;;;;;;10.23;2.42;;;12.60;99.90;;;;;;4233763;28;20120;-83
2022/06/10 03:39:55;;;;;;;19.13;2.50;;;12.60;99.90;;;;;;4218718;28;20035;-84
2022/06/10 03:42:10;;;;;;;8.52;2.53;;;12.60;99.90;;;;;;4250889;27;20046;-83
2022/06/10 03:44:17;;;;;;;8.75;1.77;;;12.60;99.90;;;;;;4250589;27;20412;-84
2022/06/10 03:46:21;;;;;;;7.22;1.95;;;12.60;99.90;;;;;;4250672;27;20146;-84
2022/06/10 03:48:23;;;;;;;11.77;2.58;;;12.50;99.90;;;;;;4250769;27;20043;-84
2022/06/10 03:50:30;;;;;;;10.57;2.10;;;12.50;99.90;;;;;;4250356;27;20051;-84
2022/06/10 03:52:33;;;;;;;9.57;2.05;;;12.50;99.90;;;;;;4250721;27;20055;-84
2022/06/10 03:54:34;;;;;;;9.57;2.03;;;12.50;99.90;;;;;;4250331;27;20047;-84
2022/06/10 03:56:36;;;;;;;7.97;2.05;;;12.50;99.90;;;;;;4250318;27;20458;-84
2022/06/10 03:58:38;;;;;;;5.32;1.38;;;12.50;99.90;;;;;;4251345;27;20394;-84
2022/06/10 04:00:39;;;;;;;11.95;2.00;;;12.60;99.90;;;;;;4250778;27;20116;-84
2022/06/10 04:02:40;;;;;;;7.70;1.70;;;12.60;99.90;;;;;;4250767;27;20039;-84
2022/06/10 04:04:43;;;;;;;7.95;2.25;;;12.60;99.90;;;;;;4232509;28;20140;-83
2022/06/10 04:06:44;;;;;;;5.88;1.50;;;12.60;99.90;;;;;;4251125;27;20051;-83
2022/06/10 04:08:45;;;;;;;12.35;2.20;;;12.70;99.90;;;;;;4251128;27;20047;-83
2022/06/10 04:10:46;;;;;;;12.60;2.10;;;12.70;99.90;;;;;;4251343;27;20510;-84
2022/06/10 04:12:46;;;;;;;10.57;1.85;;;12.70;99.90;;;;;;4251015;27;20113;-84
2022/06/10 04:14:48;;;;;;;7.32;1.70;;;12.80;99.90;;;;;;4232811;28;20044;-84
2022/06/10 04:16:49;;;;;;;8.50;1.90;;;12.80;99.90;;;;;;4250547;27;20035;-84
2022/06/10 04:18:49;;;;;;;11.55;2.15;;;12.90;99.90;;;;;;4221138;28;20145;-84
2022/06/10 04:20:51;;;;;;;8.93;3.30;;;12.90;99.90;;;;;;4215504;28;20051;-83
2022/06/10 04:22:52;;;;;;;11.07;1.88;;;12.90;99.90;;;;;;4233160;28;20515;-84
2022/06/10 04:24:53;;;;;;;8.75;2.08;;;13.00;99.90;;;;;;4233383;28;20043;-84
2022/06/10 04:26:54;;;;;;;11.13;1.75;;;13.00;99.90;;;;;;4233388;28;20067;-84
2022/06/10 04:28:55;;;;;;;6.25;1.88;;;13.00;99.90;;;;;;4198988;28;20043;-84
2022/06/10 04:30:56;;;;;;;14.45;3.03;;;13.10;99.90;;;;;;4232828;28;20046;-84
2022/06/10 04:32:57;;;;;;;17.02;2.10;;;13.10;99.90;;;;;;4233594;28;20104;-84
2022/06/10 04:34:58;;;;;;;8.82;1.88;;;13.20;99.90;;;;;;4233659;28;20480;-84
2022/06/10 04:36:59;;;;;;;8.95;2.20;;;13.20;99.90;;;;;;4233726;28;20127;-84
2022/06/10 04:39:00;;;;;;;7.57;1.70;;;13.30;99.90;;;;;;4215134;28;20436;-84
2022/06/10 04:41:05;;;;;;;10.50;2.58;;;13.30;99.90;;;;;;4214874;28;20052;-84
2022/06/10 04:43:08;;;;;;;9.10;2.13;;;13.40;99.90;;;;;;4233177;28;20070;-84
2022/06/10 04:45:09;;;;;;;10.40;2.00;;;13.40;99.90;;;;;;4215346;28;20080;-84
2022/06/10 04:47:11;;;;;;;10.13;1.50;;;13.50;99.90;;;;;;4232273;28;20097;-84
2022/06/10 04:49:11;;;;;;;10.13;2.33;;;13.50;99.90;;;;;;4215007;28;20520;-84
2022/06/10 04:51:12;;;;;;;10.52;2.38;;;13.60;99.90;;;;;;4233384;28;20111;-84
2022/06/10 04:53:15;;;;;;;14.63;1.90;;;13.70;99.90;;;;;;4233068;28;20510;-84
2022/06/10 04:55:15;;;;;;;8.45;2.08;;;13.80;99.90;;;;;;4215054;28;20055;-84
2022/06/10 04:57:17;;;;;;;10.02;2.22;;;13.80;99.90;;;;;;4215226;28;20456;-83
2022/06/10 04:59:18;;;;;;;13.25;2.38;;;13.90;99.90;;;;;;4214980;28;20055;-84
2022/06/10 05:01:19;;;;;;;10.88;1.90;;;14.00;99.90;;;;;;4231682;28;20058;-83
2022/06/10 05:03:20;;;;;;;9.05;1.92;;;14.10;99.90;;;;;;4233742;28;20044;-84
2022/06/10 05:05:21;;;;;;;8.98;2.40;;;14.20;99.90;;;;;;4232924;28;20043;-83
2022/06/10 05:07:23;;;;;;;16.33;2.25;;;14.30;99.90;;;;;;4233371;28;20058;-84
2022/06/10 05:09:24;;;;;;;15.88;2.13;;;14.30;99.90;;;;;;4233055;28;20035;-83
2022/06/10 05:11:25;;;;;;;9.05;2.33;;;14.30;99.90;;;;;;4232572;28;20082;-83
2022/06/10 05:13:26;;;;;;;10.23;2.10;;;14.40;99.90;;;;;;4232902;28;20043;-83
2022/06/10 05:15:28;;;;;;;5.88;1.63;;;14.40;99.90;;;;;;4232793;28;20086;-83
2022/06/10 05:17:29;;;;;;;6.78;2.00;;;14.40;99.90;;;;;;4233290;28;20043;-83
2022/06/10 05:19:30;;;;;;;11.63;2.00;;;14.40;99.90;;;;;;4237014;28;20039;-83
2022/06/10 05:21:30;;;;;;;5.93;1.80;;;14.40;99.90;;;;;;4236039;28;20052;-84
2022/06/10 05:23:31;;;;;;;10.50;2.17;;;14.40;99.90;;;;;;4238522;28;20115;-84
2022/06/10 05:25:33;;;;;;;17.17;3.42;;;14.50;99.90;;;;;;4238934;28;20036;-83
2022/06/10 05:27:33;;;;;;;7.22;1.80;;;14.50;99.90;;;;;;4220227;28;20459;-83
2022/06/10 05:29:36;;;;;;;9.20;1.55;;;14.50;99.90;;;;;;4237988;28;20044;-83
2022/06/10 05:31:36;;;;;;;10.55;1.58;;;13.90;99.90;;;;;;4219290;28;20400;-82
2022/06/10 05:35:56;;;;;;;10.38;2.22;;;14.60;99.90;;;;;;4233383;28;20055;-83
2022/06/10 05:37:57;;;;;;;10.23;1.75;;;14.60;99.90;;;;;;4214163;28;20507;-83
2022/06/10 05:39:58;;;;;;;18.75;2.78;;;14.70;99.90;;;;;;4235256;27;20039;-83
2022/06/10 05:42:04;;;;;;;10.57;2.10;;;14.70;99.90;;;;;;4249208;27;20464;-83
2022/06/10 05:44:06;;;;;;;7.55;1.80;;;14.70;99.90;;;;;;4249296;27;20085;-82
2022/06/10 05:46:07;;;;;;;14.88;2.72;;;14.70;99.90;;;;;;4230473;28;20055;-83
2022/06/10 05:48:08;;;;;;;7.88;2.10;;;14.80;99.90;;;;;;4249054;27;20122;-86
2022/06/10 05:50:39;;;;;;;13.48;1.73;;;14.80;99.90;;;;;;4207092;28;20109;-83
2022/06/10 05:52:40;;;;;;;14.02;2.45;;;14.90;99.90;;;;;;4237390;27;20054;-83
2022/06/10 05:54:44;;;;;;;6.00;1.77;;;14.90;99.90;;;;;;4230839;28;20495;-83
2022/06/10 05:56:45;;;;;;;8.10;1.80;;;14.90;99.90;;;;;;4221386;28;20055;-83
2022/06/10 05:58:45;;;;;;;9.85;2.40;;;15.00;99.90;;;;;;4232658;28;20048;-83
2022/06/10 06:00:46;;;;;;;5.35;1.92;;;15.00;99.90;;;;;;4231477;28;20039;-83
2022/06/10 06:02:47;;;;;;;9.57;2.30;;;15.00;99.90;;;;;;4231908;28;20051;-83
2022/06/10 06:04:49;;;;;;;10.07;1.40;;;15.10;99.90;;;;;;4231623;28;20031;-84
2022/06/10 06:06:50;;;;;;;9.35;1.70;;;15.10;99.90;;;;;;4231487;28;20043;-84
2022/06/10 06:08:51;;;;;;;7.88;1.77;;;15.10;99.90;;;;;;4222698;28;20090;-84
2022/06/10 06:10:51;;;;;;;13.18;2.75;;;15.10;99.90;;;;;;4248875;27;20079;-84
2022/06/10 06:12:52;;;;;;;11.05;2.33;;;15.20;99.90;;;;;;4248319;27;20487;-84
2022/06/10 06:14:53;;;;;;;6.25;1.90;;;15.20;99.90;;;;;;4230516;28;20036;-84
2022/06/10 06:17:00;;;;;;;8.48;2.22;;;15.30;99.90;;;;;;4231104;28;20122;-84
2022/06/10 06:19:02;;;;;;;9.95;2.05;;;15.30;99.90;;;;;;4230814;28;20079;-84
2022/06/10 06:21:04;;;;;;;8.38;2.33;;;15.30;99.90;;;;;;4248125;27;20047;-82
2022/06/10 06:23:05;;;;;;;9.80;2.00;;;15.40;99.90;;;;;;4250624;27;20062;-82
2022/06/10 06:25:07;;;;;;;10.52;2.40;;;15.40;99.90;;;;;;4250150;27;20039;-83
2022/06/10 06:27:13;;;;;;;14.05;2.55;;;15.40;99.90;;;;;;4257958;27;20387;-82
2022/06/10 06:29:14;;;;;;;11.18;1.90;;;15.40;99.90;;;;;;4234229;28;20073;-83
2022/06/10 06:31:15;;;;;;;13.45;2.90;;;15.50;99.90;;;;;;4248959;27;20035;-83
2022/06/10 06:33:16;;;;;;;15.80;4.03;;;15.60;99.90;;;;;;4229944;28;20142;-83
2022/06/10 06:35:19;;;;;;;9.05;3.05;;;15.60;99.90;;;;;;4230788;28;20038;-82
2022/06/10 06:37:20;;;;;;;7.32;2.33;;;15.70;99.90;;;;;;4230702;28;20059;-83
2022/06/10 06:39:23;;;;;;;8.13;2.53;;;15.80;99.90;;;;;;4248920;27;20070;-83
2022/06/10 06:41:24;;;;;;;6.90;1.80;;;15.90;99.90;;;;;;4249230;27;20047;-83
2022/06/10 06:43:25;;;;;;;14.38;2.60;;;15.90;99.90;;;;;;4231532;28;20070;-82
2022/06/10 06:45:28;;;;;;;11.35;2.95;;;16.00;99.90;;;;;;4256345;27;20069;-82
2022/06/10 06:47:29;;;;;;;16.15;3.45;;;15.90;99.90;;;;;;4258954;27;20043;-83
2022/06/10 06:49:31;;;;;;;12.43;2.78;;;15.90;99.90;;;;;;4258912;28;20185;-83
2022/06/10 06:51:32;;;;;;;6.88;2.97;;;15.90;99.90;;;;;;4240582;28;20495;-83
2022/06/10 06:53:33;;;;;;;10.93;2.75;;;15.80;99.90;;;;;;4257367;28;20043;-83
2022/06/10 06:55:36;;;;;;;15.13;3.03;;;15.70;99.90;;;;;;4258433;28;20110;-83
2022/06/10 06:57:37;;;;;;;14.27;3.47;;;15.70;99.90;;;;;;4261673;28;20064;-83
2022/06/10 06:59:38;;;;;;;15.38;3.33;;;15.60;99.90;;;;;;4238986;28;20048;-83
2022/06/10 07:01:38;;;;;;;9.30;3.33;;;15.50;99.90;;;;;;4254000;27;20047;-83
2022/06/10 07:03:39;;;;;;;15.45;3.70;;;15.60;99.90;;;;;;4248357;28;20039;-82
2022/06/10 07:05:42;;;;;;;14.02;3.00;;;15.60;99.90;;;;;;4262452;28;20048;-83
2022/06/10 07:07:44;;;;;;;11.35;3.60;;;15.60;99.90;;;;;;4262301;28;20050;-83
2022/06/10 07:09:44;;;;;;;10.57;3.00;;;15.70;99.90;;;;;;4242987;28;20054;-83
2022/06/10 07:11:46;;;;;;;14.95;3.38;;;15.70;99.90;;;;;;4264069;27;20039;-83
2022/06/10 07:13:53;;;;;;;14.75;3.60;;;15.80;99.90;;;;;;4264388;27;20043;-83
2022/06/10 07:15:56;;;;;;;16.25;2.80;;;15.90;99.90;;;;;;4263667;27;20454;-83
2022/06/10 07:17:57;;;;;;;10.70;3.10;;;15.90;99.90;;;;;;4260641;27;20024;-82
2022/06/10 07:19:58;;;;;;;11.77;2.78;;;16.00;99.90;;;;;;4247503;28;20052;-81
2022/06/10 07:21:59;;;;;;;17.08;4.72;;;16.20;99.90;;;;;;4265030;27;20059;-81
2022/06/10 07:24:03;;;;;;;11.55;2.92;;;16.30;99.90;;;;;;4264573;27;20046;-82
2022/06/10 07:26:05;;;;;;;14.45;3.80;;;16.40;99.90;;;;;;4264650;27;20039;-82
2022/06/10 07:28:07;;;;;;;13.93;3.28;;;16.50;99.90;;;;;;4249003;27;20035;-82
2022/06/10 07:30:09;;;;;;;9.20;2.40;;;16.50;99.90;;;;;;4213172;28;20483;-82
2022/06/10 07:32:09;;;;;;;8.60;2.60;;;16.50;99.90;;;;;;4255246;27;20039;-83
2022/06/10 07:34:11;;;;;;;6.25;2.63;;;16.50;99.90;;;;;;4243333;27;20099;-83
2022/06/10 07:36:11;;;;;;;11.48;2.97;;;16.50;99.90;;;;;;4242083;27;20429;-83
2022/06/10 07:38:12;;;;;;;10.23;2.70;;;16.50;99.90;;;;;;4241088;27;20027;-83
2022/06/10 07:42:39;;;;;;;10.63;2.85;;;16.40;99.90;;;;;;4252585;27;20456;-83
2022/06/10 07:44:40;;;;;;;9.60;2.75;;;16.40;99.90;;;;;;4232842;28;20123;-83
2022/06/10 07:46:41;;;;;;;12.13;3.65;;;16.40;99.90;;;;;;4242512;27;20466;-83
2022/06/10 07:48:43;;;;;;;8.70;2.90;;;16.40;99.90;;;;;;4247744;27;20504;-83
2022/06/10 07:50:45;;;;;;;9.10;3.40;;;16.30;99.90;;;;;;4244073;27;20044;-83
2022/06/10 07:52:46;;;;;;;13.75;3.45;;;16.40;99.90;;;;;;4241625;27;20039;-83
2022/06/10 07:54:47;;;;;;;9.35;2.78;;;16.40;99.90;;;;;;4248479;27;20134;-83
2022/06/10 07:56:47;;;;;;;14.82;3.78;;;16.40;99.90;;;;;;4249961;27;20039;-83
2022/06/10 07:58:50;;;;;;;7.13;3.40;;;16.60;99.90;;;;;;4241374;27;20047;-83
2022/06/10 08:00:51;;;;;;;7.10;2.97;;;16.70;99.90;;;;;;4246043;27;20172;-83
2022/06/10 08:02:53;;;;;;;6.10;2.63;;;17.00;99.90;;;;;;4252761;27;20497;-83
2022/06/10 08:04:53;;;;;;;10.30;3.30;;;17.20;99.90;;;;;;4245705;27;20043;-83
2022/06/10 08:06:54;;;;;;;7.57;3.08;;;17.20;99.90;;;;;;4242802;27;20061;-83
2022/06/10 08:08:55;;;;;;;6.43;2.80;;;17.30;99.90;;;;;;4245068;27;20043;-83
2022/06/10 08:10:57;;;;;;;9.77;3.15;;;17.40;99.90;;;;;;4241888;28;20047;-83
2022/06/10 08:13:01;;;;;;;8.73;2.90;;;17.40;99.90;;;;;;4227709;28;20121;-83
2022/06/10 08:15:02;;;;;;;9.23;3.00;;;17.40;99.90;;;;;;4246730;27;20067;-83
2022/06/10 08:17:06;;;;;;;6.78;3.00;;;17.40;99.90;;;;;;4226985;28;20443;-83
2022/06/10 08:19:07;;;;;;;7.50;3.17;;;17.30;99.90;;;;;;4248167;27;20046;-83
2022/06/10 08:23:28;;;;;;;9.18;3.45;;;17.10;99.90;;;;;;4249035;27;20039;-84
2022/06/10 08:25:29;;;;;;;8.38;3.25;;;17.00;99.90;;;;;;4246298;27;20074;-84
2022/06/10 08:27:30;;;;;;;7.80;3.15;;;16.80;99.90;;;;;;4228438;28;20507;-84
2022/06/10 08:29:31;;;;;;;7.88;4.43;;;16.80;99.90;;;;;;4228027;28;20047;-84
2022/06/10 08:31:31;;;;;;;8.20;3.20;;;16.70;99.90;;;;;;4236921;27;20078;-83
2022/06/10 08:33:32;;;;;;;7.18;3.10;;;16.70;99.90;;;;;;4234322;27;20110;-84
2022/06/10 08:35:34;;;;;;;9.82;2.95;;;16.80;99.90;;;;;;4238927;27;20031;-84
2022/06/10 08:37:36;;;;;;;8.35;3.75;;;16.80;99.90;;;;;;4238626;27;20051;-83
2022/06/10 08:39:37;;;;;;;6.30;3.13;;;16.80;99.90;;;;;;4256860;27;20039;-82
2022/06/10 08:41:53;;;;;;;5.43;3.10;;;16.80;99.90;;;;;;4229612;28;20051;-82
2022/06/10 08:44:01;;;;;;;7.82;3.00;;;16.80;99.90;;;;;;4247602;27;20035;-81
2022/06/10 08:46:34;;;;;;;9.77;3.83;;;16.80;99.90;;;;;;4237082;27;20081;-81
2022/06/10 08:48:55;;;;;;;10.20;3.70;;;16.80;99.90;;;;;;4234927;27;20043;-81
2022/06/10 08:51:08;;;;;;;9.13;3.50;;;16.80;99.90;;;;;;4246663;27;20042;-81
2022/06/10 08:53:30;;;;;;;8.88;3.63;;;16.90;99.90;;;;;;4243767;27;20039;-81
2022/06/10 08:56:00;;;;;;;9.00;3.85;;;17.10;99.90;;;;;;4235353;27;20051;-81
2022/06/10 08:58:12;;;;;;;12.25;3.65;;;17.20;99.90;;;;;;4227451;28;20040;-80
2022/06/10 09:00:33;;;;;;;11.45;3.67;;;17.20;99.90;;;;;;4233103;27;20669;-81
2022/06/10 09:02:39;;;;;;;12.38;4.20;;;17.30;99.90;;;;;;4234018;27;20416;-80
2022/06/10 09:04:52;;;;;;;10.65;3.97;;;17.30;99.90;;;;;;4221321;28;20036;-80
2022/06/10 09:06:57;;;;;;;7.55;3.47;;;17.40;99.90;;;;;;4236170;27;20047;-80
2022/06/10 09:09:05;;;;;;;13.90;4.10;;;17.30;99.90;;;;;;4243940;27;20043;-81
2022/06/10 09:11:26;;;;;;;14.38;4.07;;;17.30;99.90;;;;;;4247909;27;20067;-81
2022/06/10 09:13:48;;;;;;;9.93;3.25;;;17.20;99.90;;;;;;4248441;27;20117;-82
2022/06/10 09:15:59;;;;;;;13.30;4.45;;;17.20;99.90;;;;;;4222705;28;20051;-81
2022/06/10 09:18:07;;;;;;;10.00;3.80;;;17.20;99.90;;;;;;4240371;27;20058;-81
2022/06/10 09:20:29;;;;;;;7.63;3.50;;;17.30;99.90;;;;;;4243195;27;20039;-81
2022/06/10 09:22:55;;;;;;;12.20;3.78;;;17.40;99.90;;;;;;4218414;28;20057;-82
2022/06/10 09:25:11;;;;;;;13.68;4.25;;;17.50;99.90;;;;;;4246901;27;20037;-81
2022/06/10 09:27:28;;;;;;;7.10;3.70;;;17.60;99.90;;;;;;4249915;27;20051;-81
2022/06/10 09:29:30;;;;;;;13.77;4.70;;;17.70;99.90;;;;;;4258598;27;20039;-81
2022/06/10 09:31:58;;;;;;;13.85;4.18;;;17.80;99.90;;;;;;4254063;27;20050;-81
2022/06/10 09:34:07;;;;;;;12.07;4.55;;;17.90;99.90;;;;;;4252937;27;20072;-81
2022/06/10 09:36:27;;;;;;;;;;;18.10;99.90;;;;;;4244398;27;20043;-81
2022/06/10 09:38:47;;;;;;;11.13;4.28;;;18.20;99.90;;;;;;4239914;28;19916;-81
2022/06/10 09:41:06;;;;;;;7.10;3.80;;;18.40;99.90;;;;;;4247954;27;20388;-81
2022/06/10 09:43:36;;;;;;;10.38;3.60;;;18.40;99.90;;;;;;4243309;27;20044;-81
2022/06/10 09:46:14;;;;;;;9.05;3.83;;;18.20;99.90;;;;;;4258686;27;20065;-81
2022/06/10 09:48:48;;;;;;;10.80;3.95;;;18.10;99.90;;;;;;4211472;28;20059;-81
2022/06/10 09:51:24;;;;;;;7.88;3.10;;;18.10;99.90;;;;;;4254875;27;20074;-81
2022/06/10 09:53:51;;;;;;;10.43;3.85;;;18.10;99.90;;;;;;4234964;27;20083;-81
2022/06/10 09:56:06;;;;;;;10.20;3.28;;;18.00;99.90;;;;;;4235909;27;20047;-81
2022/06/10 09:58:27;;;;;;;12.45;3.20;;;18.00;99.90;;;;;;4242978;27;20046;-81
2022/06/10 10:00:37;;;;;;;11.65;3.40;;;17.90;99.90;;;;;;4234457;27;20387;-81
2022/06/10 10:03:12;;;;;;;7.65;3.17;;;17.90;99.90;;;;;;4231337;27;20046;-82
2022/06/10 10:05:38;;;;;;;9.70;3.20;;;17.90;99.90;;;;;;4234630;27;20130;-81
2022/06/10 10:08:05;;;;;;;6.00;3.45;;;17.90;99.90;;;;;;4243467;27;20071;-82
2022/06/10 10:10:37;;;;;;;11.07;3.10;;;18.00;99.90;;;;;;4241278;27;20035;-82
2022/06/10 10:12:44;;;;;;;11.02;3.58;;;18.00;99.90;;;;;;4254601;27;20383;-81
2022/06/10 10:14:58;;;;;;;9.55;3.50;;;18.00;99.90;;;;;;4257677;27;20078;-81
2022/06/10 10:17:25;;;;;;;11.68;3.40;;;18.00;99.90;;;;;;4247110;27;20069;-81
2022/06/10 10:19:31;;;;;;;16.13;4.32;;;18.10;99.90;;;;;;4243733;27;20043;-81
2022/06/10 10:22:00;;;;;;;9.40;3.90;;;18.00;99.90;;;;;;4253636;27;20048;-81
2022/06/10 10:24:00;;;;;;;;;;;18.10;99.90;;;;;;4228140;28;20045;-81
2022/06/10 10:26:13;;;;;;;11.98;4.10;;;18.10;99.90;;;;;;4249769;27;19970;-83
2022/06/10 10:28:29;;;;;;;10.63;4.95;;;18.20;99.90;;;;;;4246673;27;20051;-83
2022/06/10 10:30:43;;;;;;;7.93;3.53;;;18.20;99.90;;;;;;4245089;27;20071;-82
2022/06/10 10:32:51;;;;;;;17.23;4.03;;;18.20;99.90;;;;;;4234925;27;20047;-83
2022/06/10 10:35:05;;;;;;;15.82;3.85;;;18.20;99.90;;;;;;4220588;28;20099;-83
2022/06/10 10:37:24;;;;;;;17.85;3.85;;;18.20;99.90;;;;;;4230931;28;20062;-83
2022/06/10 10:39:35;;;;;;;13.98;4.25;;;18.40;99.90;;;;;;4219794;28;20043;-83
2022/06/10 10:41:40;;;;;;;9.70;3.50;;;18.50;99.90;;;;;;4236071;27;20554;-83
2022/06/10 10:43:44;;;;;;;16.08;3.90;;;18.70;99.90;;;;;;4236993;27;20035;-83
2022/06/10 10:46:07;;;;;;;12.18;4.38;;;18.90;99.90;;;;;;4213937;28;20044;-83
2022/06/10 10:48:21;;;;;;;10.43;3.60;;;19.00;99.90;;;;;;4236501;28;20442;-83
2022/06/10 10:50:38;;;;;;;12.80;4.32;;;19.00;99.90;;;;;;4247130;28;20047;-83
2022/06/10 10:52:44;;;;;;;12.15;4.00;;;18.90;99.90;;;;;;4239482;28;20039;-83
2022/06/10 10:54:48;;;;;;;11.23;4.07;;;18.90;99.90;;;;;;4233276;28;20035;-83
2022/06/10 10:56:51;;;;;;;9.70;3.63;;;18.90;99.90;;;;;;4235031;28;20082;-83
2022/06/10 10:58:56;;;;;;;11.07;4.32;;;18.90;99.90;;;;;;4242770;28;20050;-83
2022/06/10 11:01:07;;;;;;;10.60;3.42;;;18.90;99.90;;;;;;4226733;28;20036;-83
2022/06/10 11:03:22;;;;;;;13.70;4.18;;;18.80;99.90;;;;;;4237930;28;20044;-82
2022/06/10 11:05:37;;;;;;;10.73;3.70;;;18.80;99.90;;;;;;4240177;28;20048;-82
2022/06/10 11:07:38;;;;;;;10.75;4.05;;;18.70;99.90;;;;;;4241977;28;20048;-84
2022/06/10 11:10:28;;;;;;;8.65;4.30;;;18.70;99.90;;;;;;4230919;28;20073;-82